sensor_id;sensor_type;location;lat;lon;timestamp;P1;durP1;ratioP1;P2;durP2;ratioP2
5937;SDS011;2994;51.220;4.412;2022-12-07T00:01:26;8.50;;;7.60;;
5937;SDS011;2994;51.220;4.412;2022-12-07T00:03:55;8.27;;;7.17;;
5937;SDS011;2994;51.220;4.412;2022-12-07T00:06:40;9.40;;;7.20;;
5937;SDS011;2994;51.220;4.412;2022-12-07T00:09:10;9.40;;;8.17;;
5937;SDS011;2994;51.220;4.412;2022-12-07T00:11:41;8.90;;;7.10;;
5937;SDS011;2994;51.220;4.412;2022-12-07T00:14:07;9.80;;;7.47;;
5937;SDS011;2994;51.220;4.412;2022-12-07T00:16:36;8.43;;;7.60;;
5937;SDS011;2994;51.220;4.412;2022-12-07T00:19:02;7.70;;;6.90;;
5937;SDS011;2994;51.220;4.412;2022-12-07T00:21:29;10.07;;;7.60;;
5937;SDS011;2994;51.220;4.412;2022-12-07T00:23:59;10.40;;;7.70;;
5937;SDS011;2994;51.220;4.412;2022-12-07T00:26:29;7.50;;;6.30;;
5937;SDS011;2994;51.220;4.412;2022-12-07T00:28:57;11.20;;;6.60;;
5937;SDS011;2994;51.220;4.412;2022-12-07T00:31:25;10.07;;;6.73;;
5937;SDS011;2994;51.220;4.412;2022-12-07T00:33:53;7.37;;;6.03;;
5937;SDS011;2994;51.220;4.412;2022-12-07T00:36:19;7.13;;;6.30;;
5937;SDS011;2994;51.220;4.412;2022-12-07T00:38:46;7.90;;;6.70;;
5937;SDS011;2994;51.220;4.412;2022-12-07T00:41:19;8.43;;;6.47;;
5937;SDS011;2994;51.220;4.412;2022-12-07T00:43:46;8.07;;;6.63;;
5937;SDS011;2994;51.220;4.412;2022-12-07T00:46:14;9.57;;;7.30;;
5937;SDS011;2994;51.220;4.412;2022-12-07T00:48:40;7.57;;;6.00;;
5937;SDS011;2994;51.220;4.412;2022-12-07T00:51:06;8.70;;;7.37;;
5937;SDS011;2994;51.220;4.412;2022-12-07T00:53:34;7.63;;;6.83;;
5937;SDS011;2994;51.220;4.412;2022-12-07T00:56:14;7.90;;;6.67;;
5937;SDS011;2994;51.220;4.412;2022-12-07T00:58:41;8.97;;;6.83;;
5937;SDS011;2994;51.220;4.412;2022-12-07T01:01:07;7.90;;;6.07;;
5937;SDS011;2994;51.220;4.412;2022-12-07T01:03:33;8.80;;;6.13;;
5937;SDS011;2994;51.220;4.412;2022-12-07T01:05:59;6.73;;;6.00;;
5937;SDS011;2994;51.220;4.412;2022-12-07T01:08:25;6.73;;;5.83;;
5937;SDS011;2994;51.220;4.412;2022-12-07T01:11:03;8.20;;;6.20;;
5937;SDS011;2994;51.220;4.412;2022-12-07T01:13:30;7.60;;;6.77;;
5937;SDS011;2994;51.220;4.412;2022-12-07T01:15:57;6.87;;;5.40;;
5937;SDS011;2994;51.220;4.412;2022-12-07T01:18:25;6.20;;;5.60;;
5937;SDS011;2994;51.220;4.412;2022-12-07T01:21:37;7.97;;;7.17;;
5937;SDS011;2994;51.220;4.412;2022-12-07T01:23:47;6.23;;;5.40;;
5937;SDS011;2994;51.220;4.412;2022-12-07T01:26:14;6.63;;;6.03;;
5937;SDS011;2994;51.220;4.412;2022-12-07T01:28:41;6.43;;;5.83;;
5937;SDS011;2994;51.220;4.412;2022-12-07T01:31:08;9.67;;;6.57;;
5937;SDS011;2994;51.220;4.412;2022-12-07T01:33:40;5.90;;;5.40;;
5937;SDS011;2994;51.220;4.412;2022-12-07T01:36:07;7.20;;;6.53;;
5937;SDS011;2994;51.220;4.412;2022-12-07T01:38:37;6.33;;;5.70;;
5937;SDS011;2994;51.220;4.412;2022-12-07T01:41:03;6.07;;;5.47;;
5937;SDS011;2994;51.220;4.412;2022-12-07T01:43:30;6.60;;;5.97;;
5937;SDS011;2994;51.220;4.412;2022-12-07T01:45:56;6.43;;;5.70;;
5937;SDS011;2994;51.220;4.412;2022-12-07T01:48:26;7.07;;;5.53;;
5937;SDS011;2994;51.220;4.412;2022-12-07T01:50:56;7.40;;;5.67;;
5937;SDS011;2994;51.220;4.412;2022-12-07T01:53:25;6.40;;;5.80;;
5937;SDS011;2994;51.220;4.412;2022-12-07T01:55:54;6.67;;;5.30;;
5937;SDS011;2994;51.220;4.412;2022-12-07T01:58:21;9.33;;;6.00;;
5937;SDS011;2994;51.220;4.412;2022-12-07T02:00:47;8.00;;;6.87;;
5937;SDS011;2994;51.220;4.412;2022-12-07T02:05:42;6.90;;;6.20;;
5937;SDS011;2994;51.220;4.412;2022-12-07T02:08:08;7.23;;;6.57;;
5937;SDS011;2994;51.220;4.412;2022-12-07T02:10:36;6.07;;;5.43;;
5937;SDS011;2994;51.220;4.412;2022-12-07T02:13:06;7.90;;;6.63;;
5937;SDS011;2994;51.220;4.412;2022-12-07T02:19:20;7.33;;;6.40;;
5937;SDS011;2994;51.220;4.412;2022-12-07T02:27:47;7.40;;;6.60;;
5937;SDS011;2994;51.220;4.412;2022-12-07T02:30:21;7.37;;;6.50;;
5937;SDS011;2994;51.220;4.412;2022-12-07T02:35:33;8.93;;;6.00;;
5937;SDS011;2994;51.220;4.412;2022-12-07T02:41:42;6.10;;;5.20;;
5937;SDS011;2994;51.220;4.412;2022-12-07T02:43:57;8.57;;;5.00;;
5937;SDS011;2994;51.220;4.412;2022-12-07T02:46:26;7.03;;;5.40;;
5937;SDS011;2994;51.220;4.412;2022-12-07T02:48:56;6.53;;;5.90;;
5937;SDS011;2994;51.220;4.412;2022-12-07T02:51:24;7.77;;;5.53;;
5937;SDS011;2994;51.220;4.412;2022-12-07T02:53:50;10.13;;;6.17;;
5937;SDS011;2994;51.220;4.412;2022-12-07T03:01:40;5.60;;;5.10;;
5937;SDS011;2994;51.220;4.412;2022-12-07T03:04:38;5.10;;;4.53;;
5937;SDS011;2994;51.220;4.412;2022-12-07T03:09:43;5.40;;;4.47;;
5937;SDS011;2994;51.220;4.412;2022-12-07T03:12:20;5.33;;;4.83;;
5937;SDS011;2994;51.220;4.412;2022-12-07T03:14:55;4.67;;;4.27;;
5937;SDS011;2994;51.220;4.412;2022-12-07T03:17:41;8.80;;;5.03;;
5937;SDS011;2994;51.220;4.412;2022-12-07T03:20:11;5.00;;;4.50;;
5937;SDS011;2994;51.220;4.412;2022-12-07T03:22:38;6.73;;;4.97;;
5937;SDS011;2994;51.220;4.412;2022-12-07T03:25:08;5.50;;;4.70;;
5937;SDS011;2994;51.220;4.412;2022-12-07T03:27:41;6.47;;;4.57;;
5937;SDS011;2994;51.220;4.412;2022-12-07T03:30:29;9.70;;;5.10;;
5937;SDS011;2994;51.220;4.412;2022-12-07T03:33:07;4.73;;;4.27;;
5937;SDS011;2994;51.220;4.412;2022-12-07T03:35:43;4.50;;;3.80;;
5937;SDS011;2994;51.220;4.412;2022-12-07T03:43:28;5.20;;;4.20;;
5937;SDS011;2994;51.220;4.412;2022-12-07T03:51:48;4.20;;;3.80;;
5937;SDS011;2994;51.220;4.412;2022-12-07T03:54:39;6.43;;;4.23;;
5937;SDS011;2994;51.220;4.412;2022-12-07T03:57:10;4.57;;;3.20;;
5937;SDS011;2994;51.220;4.412;2022-12-07T03:59:37;3.40;;;3.13;;
5937;SDS011;2994;51.220;4.412;2022-12-07T04:02:04;5.93;;;4.00;;
5937;SDS011;2994;51.220;4.412;2022-12-07T04:04:31;4.80;;;3.50;;
5937;SDS011;2994;51.220;4.412;2022-12-07T04:06:58;4.13;;;3.73;;
5937;SDS011;2994;51.220;4.412;2022-12-07T04:09:23;8.00;;;3.90;;
5937;SDS011;2994;51.220;4.412;2022-12-07T04:11:48;6.73;;;3.43;;
5937;SDS011;2994;51.220;4.412;2022-12-07T04:14:14;5.90;;;3.60;;
5937;SDS011;2994;51.220;4.412;2022-12-07T04:16:49;6.30;;;3.57;;
5937;SDS011;2994;51.220;4.412;2022-12-07T04:19:22;5.03;;;3.17;;
5937;SDS011;2994;51.220;4.412;2022-12-07T04:21:49;6.03;;;3.53;;
5937;SDS011;2994;51.220;4.412;2022-12-07T04:24:15;4.33;;;2.57;;
5937;SDS011;2994;51.220;4.412;2022-12-07T04:26:41;4.93;;;3.10;;
5937;SDS011;2994;51.220;4.412;2022-12-07T04:29:07;4.03;;;3.50;;
5937;SDS011;2994;51.220;4.412;2022-12-07T04:31:33;3.90;;;3.37;;
5937;SDS011;2994;51.220;4.412;2022-12-07T04:33:59;3.97;;;2.80;;
5937;SDS011;2994;51.220;4.412;2022-12-07T04:36:24;4.63;;;3.40;;
5937;SDS011;2994;51.220;4.412;2022-12-07T04:38:49;4.90;;;3.43;;
5937;SDS011;2994;51.220;4.412;2022-12-07T04:41:17;4.87;;;3.13;;
5937;SDS011;2994;51.220;4.412;2022-12-07T04:43:42;4.20;;;3.57;;
5937;SDS011;2994;51.220;4.412;2022-12-07T04:46:08;5.07;;;3.80;;
5937;SDS011;2994;51.220;4.412;2022-12-07T04:48:33;5.00;;;3.63;;
5937;SDS011;2994;51.220;4.412;2022-12-07T04:50:59;3.43;;;3.10;;
5937;SDS011;2994;51.220;4.412;2022-12-07T04:53:24;6.43;;;3.50;;
5937;SDS011;2994;51.220;4.412;2022-12-07T04:55:50;4.97;;;3.20;;
5937;SDS011;2994;51.220;4.412;2022-12-07T04:58:15;4.70;;;3.00;;
5937;SDS011;2994;51.220;4.412;2022-12-07T05:00:41;4.37;;;3.97;;
5937;SDS011;2994;51.220;4.412;2022-12-07T05:03:06;6.03;;;3.70;;
5937;SDS011;2994;51.220;4.412;2022-12-07T05:05:31;6.10;;;3.70;;
5937;SDS011;2994;51.220;4.412;2022-12-07T05:07:57;4.07;;;3.67;;
5937;SDS011;2994;51.220;4.412;2022-12-07T05:10:22;4.43;;;3.03;;
5937;SDS011;2994;51.220;4.412;2022-12-07T05:12:48;8.30;;;4.00;;
5937;SDS011;2994;51.220;4.412;2022-12-07T05:15:14;6.83;;;3.63;;
5937;SDS011;2994;51.220;4.412;2022-12-07T05:17:40;5.10;;;3.50;;
5937;SDS011;2994;51.220;4.412;2022-12-07T05:20:06;5.33;;;2.90;;
5937;SDS011;2994;51.220;4.412;2022-12-07T05:22:32;3.50;;;3.13;;
5937;SDS011;2994;51.220;4.412;2022-12-07T05:24:58;7.40;;;4.10;;
5937;SDS011;2994;51.220;4.412;2022-12-07T05:27:24;6.80;;;3.57;;
5937;SDS011;2994;51.220;4.412;2022-12-07T05:29:50;4.37;;;3.60;;
5937;SDS011;2994;51.220;4.412;2022-12-07T05:32:15;4.87;;;3.53;;
5937;SDS011;2994;51.220;4.412;2022-12-07T05:34:41;5.60;;;3.30;;
5937;SDS011;2994;51.220;4.412;2022-12-07T05:37:07;3.80;;;2.93;;
5937;SDS011;2994;51.220;4.412;2022-12-07T05:39:32;6.37;;;3.73;;
5937;SDS011;2994;51.220;4.412;2022-12-07T05:41:58;5.17;;;2.80;;
5937;SDS011;2994;51.220;4.412;2022-12-07T05:44:42;3.70;;;3.07;;
5937;SDS011;2994;51.220;4.412;2022-12-07T05:47:10;4.63;;;2.57;;
5937;SDS011;2994;51.220;4.412;2022-12-07T05:49:36;4.73;;;3.40;;
5937;SDS011;2994;51.220;4.412;2022-12-07T05:52:02;4.50;;;3.30;;
5937;SDS011;2994;51.220;4.412;2022-12-07T05:54:28;10.93;;;4.67;;
5937;SDS011;2994;51.220;4.412;2022-12-07T05:56:53;4.50;;;2.67;;
5937;SDS011;2994;51.220;4.412;2022-12-07T05:59:19;4.00;;;3.00;;
5937;SDS011;2994;51.220;4.412;2022-12-07T06:01:47;3.40;;;2.70;;
5937;SDS011;2994;51.220;4.412;2022-12-07T06:04:16;4.20;;;3.00;;
5937;SDS011;2994;51.220;4.412;2022-12-07T06:06:42;3.90;;;2.70;;
5937;SDS011;2994;51.220;4.412;2022-12-07T06:09:07;4.90;;;3.00;;
5937;SDS011;2994;51.220;4.412;2022-12-07T06:11:33;3.00;;;2.40;;
5937;SDS011;2994;51.220;4.412;2022-12-07T06:14:17;2.83;;;2.40;;
5937;SDS011;2994;51.220;4.412;2022-12-07T06:16:42;6.30;;;2.83;;
5937;SDS011;2994;51.220;4.412;2022-12-07T06:19:08;3.50;;;3.20;;
5937;SDS011;2994;51.220;4.412;2022-12-07T06:21:33;5.17;;;2.63;;
5937;SDS011;2994;51.220;4.412;2022-12-07T06:23:59;5.60;;;2.83;;
5937;SDS011;2994;51.220;4.412;2022-12-07T06:26:24;4.63;;;2.37;;
5937;SDS011;2994;51.220;4.412;2022-12-07T06:28:50;4.50;;;2.63;;
5937;SDS011;2994;51.220;4.412;2022-12-07T06:31:15;4.50;;;2.60;;
5937;SDS011;2994;51.220;4.412;2022-12-07T06:33:41;4.90;;;2.60;;
5937;SDS011;2994;51.220;4.412;2022-12-07T06:36:07;4.17;;;3.10;;
5937;SDS011;2994;51.220;4.412;2022-12-07T06:38:33;3.93;;;3.13;;
5937;SDS011;2994;51.220;4.412;2022-12-07T06:40:58;3.33;;;3.00;;
5937;SDS011;2994;51.220;4.412;2022-12-07T06:43:24;6.47;;;2.53;;
5937;SDS011;2994;51.220;4.412;2022-12-07T06:45:49;3.07;;;2.80;;
5937;SDS011;2994;51.220;4.412;2022-12-07T06:48:15;2.83;;;2.50;;
5937;SDS011;2994;51.220;4.412;2022-12-07T06:50:41;4.67;;;3.07;;
5937;SDS011;2994;51.220;4.412;2022-12-07T06:53:09;4.67;;;2.70;;
5937;SDS011;2994;51.220;4.412;2022-12-07T06:55:35;3.87;;;2.90;;
5937;SDS011;2994;51.220;4.412;2022-12-07T06:58:00;5.60;;;3.70;;
5937;SDS011;2994;51.220;4.412;2022-12-07T07:00:27;11.30;;;3.63;;
5937;SDS011;2994;51.220;4.412;2022-12-07T07:02:53;4.00;;;2.47;;
5937;SDS011;2994;51.220;4.412;2022-12-07T07:05:18;4.40;;;2.80;;
5937;SDS011;2994;51.220;4.412;2022-12-07T07:07:46;3.93;;;2.90;;
5937;SDS011;2994;51.220;4.412;2022-12-07T07:10:12;8.17;;;3.30;;
5937;SDS011;2994;51.220;4.412;2022-12-07T07:12:38;5.90;;;3.70;;
5937;SDS011;2994;51.220;4.412;2022-12-07T07:15:04;6.80;;;3.50;;
5937;SDS011;2994;51.220;4.412;2022-12-07T07:17:29;7.93;;;4.13;;
5937;SDS011;2994;51.220;4.412;2022-12-07T07:19:55;7.10;;;4.70;;
5937;SDS011;2994;51.220;4.412;2022-12-07T07:22:20;5.30;;;4.80;;
5937;SDS011;2994;51.220;4.412;2022-12-07T07:24:46;10.40;;;5.83;;
5937;SDS011;2994;51.220;4.412;2022-12-07T07:27:11;6.33;;;5.00;;
5937;SDS011;2994;51.220;4.412;2022-12-07T07:29:36;7.30;;;4.77;;
5937;SDS011;2994;51.220;4.412;2022-12-07T07:32:02;7.97;;;4.37;;
5937;SDS011;2994;51.220;4.412;2022-12-07T07:34:27;4.90;;;4.40;;
5937;SDS011;2994;51.220;4.412;2022-12-07T07:36:53;5.43;;;4.80;;
5937;SDS011;2994;51.220;4.412;2022-12-07T07:39:18;8.77;;;5.40;;
5937;SDS011;2994;51.220;4.412;2022-12-07T07:41:44;9.50;;;4.57;;
5937;SDS011;2994;51.220;4.412;2022-12-07T07:44:09;6.23;;;4.30;;
5937;SDS011;2994;51.220;4.412;2022-12-07T07:46:35;5.83;;;5.20;;
5937;SDS011;2994;51.220;4.412;2022-12-07T07:49:01;7.17;;;4.87;;
5937;SDS011;2994;51.220;4.412;2022-12-07T07:51:26;5.60;;;4.77;;
5937;SDS011;2994;51.220;4.412;2022-12-07T07:53:51;6.87;;;5.00;;
5937;SDS011;2994;51.220;4.412;2022-12-07T07:56:17;8.43;;;5.93;;
5937;SDS011;2994;51.220;4.412;2022-12-07T07:58:42;8.70;;;6.17;;
5937;SDS011;2994;51.220;4.412;2022-12-07T08:01:08;7.43;;;5.33;;
5937;SDS011;2994;51.220;4.412;2022-12-07T08:03:34;6.13;;;4.53;;
5937;SDS011;2994;51.220;4.412;2022-12-07T08:06:01;10.60;;;5.90;;
5937;SDS011;2994;51.220;4.412;2022-12-07T08:08:28;7.77;;;5.53;;
5937;SDS011;2994;51.220;4.412;2022-12-07T08:10:53;6.67;;;4.27;;
5937;SDS011;2994;51.220;4.412;2022-12-07T08:13:19;7.40;;;4.17;;
5937;SDS011;2994;51.220;4.412;2022-12-07T08:15:45;10.20;;;5.53;;
5937;SDS011;2994;51.220;4.412;2022-12-07T08:18:12;9.40;;;6.90;;
5937;SDS011;2994;51.220;4.412;2022-12-07T08:20:39;7.57;;;4.23;;
5937;SDS011;2994;51.220;4.412;2022-12-07T08:23:05;9.20;;;4.10;;
5937;SDS011;2994;51.220;4.412;2022-12-07T08:25:32;8.30;;;4.33;;
5937;SDS011;2994;51.220;4.412;2022-12-07T08:27:58;8.43;;;4.13;;
5937;SDS011;2994;51.220;4.412;2022-12-07T08:30:24;7.77;;;4.10;;
5937;SDS011;2994;51.220;4.412;2022-12-07T08:32:49;4.80;;;4.30;;
5937;SDS011;2994;51.220;4.412;2022-12-07T08:35:15;5.77;;;4.17;;
5937;SDS011;2994;51.220;4.412;2022-12-07T08:37:41;9.40;;;4.00;;
5937;SDS011;2994;51.220;4.412;2022-12-07T08:40:07;4.93;;;4.27;;
5937;SDS011;2994;51.220;4.412;2022-12-07T08:42:34;6.63;;;4.20;;
5937;SDS011;2994;51.220;4.412;2022-12-07T08:45:05;7.17;;;4.80;;
5937;SDS011;2994;51.220;4.412;2022-12-07T08:47:32;5.80;;;4.50;;
5937;SDS011;2994;51.220;4.412;2022-12-07T08:49:59;6.00;;;4.17;;
5937;SDS011;2994;51.220;4.412;2022-12-07T08:52:28;5.10;;;4.47;;
5937;SDS011;2994;51.220;4.412;2022-12-07T08:54:55;12.73;;;5.00;;
5937;SDS011;2994;51.220;4.412;2022-12-07T08:57:21;10.10;;;5.47;;
5937;SDS011;2994;51.220;4.412;2022-12-07T08:59:47;4.90;;;4.33;;
5937;SDS011;2994;51.220;4.412;2022-12-07T09:02:12;6.83;;;4.33;;
5937;SDS011;2994;51.220;4.412;2022-12-07T09:04:38;5.47;;;4.00;;
5937;SDS011;2994;51.220;4.412;2022-12-07T09:07:03;6.50;;;3.50;;
5937;SDS011;2994;51.220;4.412;2022-12-07T09:09:29;5.17;;;3.40;;
5937;SDS011;2994;51.220;4.412;2022-12-07T09:11:54;8.67;;;3.63;;
5937;SDS011;2994;51.220;4.412;2022-12-07T09:14:20;7.33;;;3.40;;
5937;SDS011;2994;51.220;4.412;2022-12-07T09:16:46;6.10;;;3.70;;
5937;SDS011;2994;51.220;4.412;2022-12-07T09:19:11;6.73;;;2.93;;
5937;SDS011;2994;51.220;4.412;2022-12-07T09:21:36;3.43;;;2.90;;
5937;SDS011;2994;51.220;4.412;2022-12-07T09:24:02;5.73;;;4.73;;
5937;SDS011;2994;51.220;4.412;2022-12-07T09:26:28;12.00;;;5.47;;
5937;SDS011;2994;51.220;4.412;2022-12-07T09:28:53;16.40;;;8.10;;
5937;SDS011;2994;51.220;4.412;2022-12-07T09:31:18;5.23;;;4.00;;
5937;SDS011;2994;51.220;4.412;2022-12-07T09:33:44;8.63;;;4.80;;
5937;SDS011;2994;51.220;4.412;2022-12-07T09:36:09;8.80;;;4.50;;
5937;SDS011;2994;51.220;4.412;2022-12-07T09:38:35;8.90;;;4.90;;
5937;SDS011;2994;51.220;4.412;2022-12-07T09:41:06;7.30;;;3.13;;
5937;SDS011;2994;51.220;4.412;2022-12-07T09:43:33;5.23;;;3.77;;
5937;SDS011;2994;51.220;4.412;2022-12-07T09:45:59;8.60;;;4.17;;
5937;SDS011;2994;51.220;4.412;2022-12-07T09:48:36;3.43;;;3.13;;
5937;SDS011;2994;51.220;4.412;2022-12-07T09:51:09;4.00;;;3.37;;
5937;SDS011;2994;51.220;4.412;2022-12-07T09:53:42;3.53;;;3.23;;
5937;SDS011;2994;51.220;4.412;2022-12-07T09:56:13;6.20;;;3.93;;
5937;SDS011;2994;51.220;4.412;2022-12-07T09:58:40;4.00;;;3.23;;
5937;SDS011;2994;51.220;4.412;2022-12-07T10:03:32;6.53;;;3.70;;
5937;SDS011;2994;51.220;4.412;2022-12-07T10:06:00;7.33;;;4.20;;
5937;SDS011;2994;51.220;4.412;2022-12-07T10:08:25;4.23;;;3.10;;
5937;SDS011;2994;51.220;4.412;2022-12-07T10:10:52;8.93;;;3.20;;
5937;SDS011;2994;51.220;4.412;2022-12-07T10:13:33;7.37;;;3.77;;
5937;SDS011;2994;51.220;4.412;2022-12-07T10:16:01;4.93;;;3.80;;
5937;SDS011;2994;51.220;4.412;2022-12-07T10:18:28;9.20;;;3.93;;
5937;SDS011;2994;51.220;4.412;2022-12-07T10:21:05;6.40;;;4.33;;
5937;SDS011;2994;51.220;4.412;2022-12-07T10:23:32;5.40;;;3.90;;
5937;SDS011;2994;51.220;4.412;2022-12-07T10:25:59;5.90;;;4.27;;
5937;SDS011;2994;51.220;4.412;2022-12-07T10:28:27;7.20;;;4.37;;
5937;SDS011;2994;51.220;4.412;2022-12-07T10:31:15;6.07;;;4.43;;
5937;SDS011;2994;51.220;4.412;2022-12-07T10:36:16;5.20;;;3.70;;
5937;SDS011;2994;51.220;4.412;2022-12-07T10:38:49;7.57;;;4.90;;
5937;SDS011;2994;51.220;4.412;2022-12-07T10:41:29;8.43;;;4.50;;
5937;SDS011;2994;51.220;4.412;2022-12-07T10:55:08;8.70;;;4.57;;
5937;SDS011;2994;51.220;4.412;2022-12-07T11:00:43;8.00;;;4.70;;
5937;SDS011;2994;51.220;4.412;2022-12-07T11:06:06;6.87;;;5.27;;
5937;SDS011;2994;51.220;4.412;2022-12-07T11:11:33;10.10;;;5.37;;
5937;SDS011;2994;51.220;4.412;2022-12-07T11:14:09;9.00;;;5.60;;
5937;SDS011;2994;51.220;4.412;2022-12-07T11:19:26;6.80;;;4.00;;
5937;SDS011;2994;51.220;4.412;2022-12-07T11:33:15;6.13;;;3.70;;
5937;SDS011;2994;51.220;4.412;2022-12-07T11:38:26;5.50;;;4.37;;
5937;SDS011;2994;51.220;4.412;2022-12-07T11:41:08;8.70;;;4.20;;
5937;SDS011;2994;51.220;4.412;2022-12-07T11:44:05;4.90;;;4.00;;
5937;SDS011;2994;51.220;4.412;2022-12-07T11:58:54;6.07;;;3.30;;
5937;SDS011;2994;51.220;4.412;2022-12-07T12:01:24;3.50;;;3.20;;
5937;SDS011;2994;51.220;4.412;2022-12-07T12:06:38;4.20;;;3.00;;
5937;SDS011;2994;51.220;4.412;2022-12-07T12:23:05;6.60;;;2.70;;
5937;SDS011;2994;51.220;4.412;2022-12-07T12:25:45;3.20;;;1.80;;
5937;SDS011;2994;51.220;4.412;2022-12-07T12:28:22;3.70;;;1.90;;
5937;SDS011;2994;51.220;4.412;2022-12-07T12:31:05;8.10;;;2.60;;
5937;SDS011;2994;51.220;4.412;2022-12-07T12:46:45;3.40;;;1.63;;
5937;SDS011;2994;51.220;4.412;2022-12-07T12:51:49;3.30;;;2.17;;
5937;SDS011;2994;51.220;4.412;2022-12-07T13:01:49;1.90;;;1.50;;
5937;SDS011;2994;51.220;4.412;2022-12-07T13:04:24;2.10;;;1.30;;
5937;SDS011;2994;51.220;4.412;2022-12-07T13:07:03;3.30;;;1.30;;
5937;SDS011;2994;51.220;4.412;2022-12-07T13:09:29;4.63;;;1.87;;
5937;SDS011;2994;51.220;4.412;2022-12-07T13:12:02;2.87;;;1.93;;
5937;SDS011;2994;51.220;4.412;2022-12-07T13:14:40;3.50;;;1.80;;
5937;SDS011;2994;51.220;4.412;2022-12-07T13:17:11;7.83;;;2.80;;
5937;SDS011;2994;51.220;4.412;2022-12-07T13:20:01;4.00;;;1.70;;
5937;SDS011;2994;51.220;4.412;2022-12-07T13:27:25;4.53;;;1.97;;
5937;SDS011;2994;51.220;4.412;2022-12-07T13:29:51;3.00;;;2.17;;
5937;SDS011;2994;51.220;4.412;2022-12-07T13:32:24;4.80;;;2.50;;
5937;SDS011;2994;51.220;4.412;2022-12-07T13:34:54;3.73;;;2.47;;
5937;SDS011;2994;51.220;4.412;2022-12-07T13:37:21;4.13;;;2.57;;
5937;SDS011;2994;51.220;4.412;2022-12-07T13:39:53;3.80;;;1.93;;
5937;SDS011;2994;51.220;4.412;2022-12-07T13:42:33;4.70;;;2.63;;
5937;SDS011;2994;51.220;4.412;2022-12-07T13:45:00;10.23;;;2.60;;
5937;SDS011;2994;51.220;4.412;2022-12-07T13:47:49;3.37;;;1.87;;
5937;SDS011;2994;51.220;4.412;2022-12-07T13:52:55;2.20;;;1.40;;
5937;SDS011;2994;51.220;4.412;2022-12-07T13:55:21;3.57;;;2.10;;
5937;SDS011;2994;51.220;4.412;2022-12-07T13:57:49;5.33;;;2.20;;
5937;SDS011;2994;51.220;4.412;2022-12-07T14:00:18;2.67;;;2.47;;
5937;SDS011;2994;51.220;4.412;2022-12-07T14:02:56;3.27;;;2.30;;
5937;SDS011;2994;51.220;4.412;2022-12-07T14:05:41;2.30;;;1.47;;
5937;SDS011;2994;51.220;4.412;2022-12-07T14:08:22;1.73;;;1.53;;
5937;SDS011;2994;51.220;4.412;2022-12-07T14:15:59;5.13;;;1.70;;
5937;SDS011;2994;51.220;4.412;2022-12-07T14:18:43;3.00;;;1.47;;
5937;SDS011;2994;51.220;4.412;2022-12-07T14:23:34;3.93;;;1.93;;
5937;SDS011;2994;51.220;4.412;2022-12-07T14:26:13;3.23;;;1.00;;
5937;SDS011;2994;51.220;4.412;2022-12-07T14:28:41;2.83;;;1.50;;
5937;SDS011;2994;51.220;4.412;2022-12-07T14:31:17;3.47;;;1.77;;
5937;SDS011;2994;51.220;4.412;2022-12-07T14:33:46;3.63;;;1.63;;
5937;SDS011;2994;51.220;4.412;2022-12-07T14:36:12;3.60;;;1.70;;
5937;SDS011;2994;51.220;4.412;2022-12-07T14:38:39;7.97;;;2.10;;
5937;SDS011;2994;51.220;4.412;2022-12-07T14:41:06;4.77;;;1.50;;
5937;SDS011;2994;51.220;4.412;2022-12-07T14:43:58;2.63;;;2.07;;
5937;SDS011;2994;51.220;4.412;2022-12-07T14:46:23;3.00;;;2.40;;
5937;SDS011;2994;51.220;4.412;2022-12-07T14:48:49;4.13;;;2.50;;
5937;SDS011;2994;51.220;4.412;2022-12-07T14:51:15;4.07;;;1.80;;
5937;SDS011;2994;51.220;4.412;2022-12-07T14:53:42;2.87;;;1.67;;
5937;SDS011;2994;51.220;4.412;2022-12-07T14:56:12;2.77;;;1.47;;
5937;SDS011;2994;51.220;4.412;2022-12-07T14:58:38;3.53;;;1.37;;
5937;SDS011;2994;51.220;4.412;2022-12-07T15:01:04;3.87;;;1.60;;
5937;SDS011;2994;51.220;4.412;2022-12-07T15:03:29;3.20;;;2.10;;
5937;SDS011;2994;51.220;4.412;2022-12-07T15:05:55;4.83;;;2.43;;
5937;SDS011;2994;51.220;4.412;2022-12-07T15:08:20;5.03;;;2.20;;
5937;SDS011;2994;51.220;4.412;2022-12-07T15:10:46;2.53;;;1.83;;
5937;SDS011;2994;51.220;4.412;2022-12-07T15:13:11;4.97;;;2.60;;
5937;SDS011;2994;51.220;4.412;2022-12-07T15:15:56;5.33;;;1.80;;
5937;SDS011;2994;51.220;4.412;2022-12-07T15:18:21;4.80;;;2.00;;
5937;SDS011;2994;51.220;4.412;2022-12-07T15:20:48;3.63;;;2.00;;
5937;SDS011;2994;51.220;4.412;2022-12-07T15:23:14;3.07;;;2.30;;
5937;SDS011;2994;51.220;4.412;2022-12-07T15:25:40;6.53;;;2.30;;
5937;SDS011;2994;51.220;4.412;2022-12-07T15:28:07;3.63;;;2.00;;
5937;SDS011;2994;51.220;4.412;2022-12-07T15:30:32;4.63;;;2.90;;
5937;SDS011;2994;51.220;4.412;2022-12-07T15:32:58;3.80;;;2.27;;
5937;SDS011;2994;51.220;4.412;2022-12-07T15:35:23;4.20;;;2.27;;
5937;SDS011;2994;51.220;4.412;2022-12-07T15:37:48;5.33;;;2.73;;
5937;SDS011;2994;51.220;4.412;2022-12-07T15:40:14;3.63;;;3.17;;
5937;SDS011;2994;51.220;4.412;2022-12-07T15:45:14;4.80;;;3.37;;
5937;SDS011;2994;51.220;4.412;2022-12-07T15:47:41;3.47;;;2.87;;
5937;SDS011;2994;51.220;4.412;2022-12-07T15:50:12;5.13;;;3.50;;
5937;SDS011;2994;51.220;4.412;2022-12-07T15:52:47;10.10;;;5.17;;
5937;SDS011;2994;51.220;4.412;2022-12-07T15:55:13;5.20;;;3.60;;
5937;SDS011;2994;51.220;4.412;2022-12-07T15:57:38;5.20;;;4.00;;
5937;SDS011;2994;51.220;4.412;2022-12-07T16:00:05;5.60;;;3.50;;
5937;SDS011;2994;51.220;4.412;2022-12-07T16:02:33;5.07;;;2.80;;
5937;SDS011;2994;51.220;4.412;2022-12-07T16:04:58;4.40;;;3.40;;
5937;SDS011;2994;51.220;4.412;2022-12-07T16:07:24;5.67;;;3.13;;
5937;SDS011;2994;51.220;4.412;2022-12-07T16:09:49;3.27;;;2.80;;
5937;SDS011;2994;51.220;4.412;2022-12-07T16:12:15;6.63;;;4.10;;
5937;SDS011;2994;51.220;4.412;2022-12-07T16:14:41;11.23;;;4.07;;
5937;SDS011;2994;51.220;4.412;2022-12-07T16:17:06;6.70;;;3.17;;
5937;SDS011;2994;51.220;4.412;2022-12-07T16:19:36;4.37;;;2.87;;
5937;SDS011;2994;51.220;4.412;2022-12-07T16:22:02;3.27;;;2.63;;
5937;SDS011;2994;51.220;4.412;2022-12-07T16:24:29;3.60;;;2.57;;
5937;SDS011;2994;51.220;4.412;2022-12-07T16:26:55;8.10;;;3.20;;
5937;SDS011;2994;51.220;4.412;2022-12-07T16:29:21;4.33;;;2.90;;
5937;SDS011;2994;51.220;4.412;2022-12-07T16:31:47;3.10;;;2.50;;
5937;SDS011;2994;51.220;4.412;2022-12-07T16:34:13;4.60;;;2.63;;
5937;SDS011;2994;51.220;4.412;2022-12-07T16:36:39;3.70;;;3.37;;
5937;SDS011;2994;51.220;4.412;2022-12-07T16:39:05;4.20;;;2.67;;
5937;SDS011;2994;51.220;4.412;2022-12-07T16:41:31;3.80;;;2.67;;
5937;SDS011;2994;51.220;4.412;2022-12-07T16:43:56;2.83;;;2.10;;
5937;SDS011;2994;51.220;4.412;2022-12-07T16:46:22;3.20;;;2.60;;
5937;SDS011;2994;51.220;4.412;2022-12-07T16:48:48;4.00;;;2.70;;
5937;SDS011;2994;51.220;4.412;2022-12-07T16:51:14;3.73;;;2.67;;
5937;SDS011;2994;51.220;4.412;2022-12-07T16:53:40;7.07;;;2.70;;
5937;SDS011;2994;51.220;4.412;2022-12-07T16:56:13;3.90;;;2.80;;
5937;SDS011;2994;51.220;4.412;2022-12-07T16:58:40;5.97;;;3.20;;
5937;SDS011;2994;51.220;4.412;2022-12-07T17:01:10;5.83;;;3.87;;
5937;SDS011;2994;51.220;4.412;2022-12-07T17:03:37;3.87;;;3.10;;
5937;SDS011;2994;51.220;4.412;2022-12-07T17:06:02;3.70;;;2.73;;
5937;SDS011;2994;51.220;4.412;2022-12-07T17:08:31;4.27;;;2.10;;
5937;SDS011;2994;51.220;4.412;2022-12-07T17:10:56;4.40;;;2.93;;
5937;SDS011;2994;51.220;4.412;2022-12-07T17:13:24;3.50;;;2.63;;
5937;SDS011;2994;51.220;4.412;2022-12-07T17:16:08;7.53;;;3.10;;
5937;SDS011;2994;51.220;4.412;2022-12-07T17:18:34;2.83;;;2.60;;
5937;SDS011;2994;51.220;4.412;2022-12-07T17:21:04;5.10;;;3.73;;
5937;SDS011;2994;51.220;4.412;2022-12-07T17:23:31;4.30;;;3.60;;
5937;SDS011;2994;51.220;4.412;2022-12-07T17:26:05;4.97;;;3.27;;
5937;SDS011;2994;51.220;4.412;2022-12-07T17:28:35;4.83;;;3.20;;
5937;SDS011;2994;51.220;4.412;2022-12-07T17:31:04;5.43;;;3.50;;
5937;SDS011;2994;51.220;4.412;2022-12-07T17:33:31;6.10;;;3.67;;
5937;SDS011;2994;51.220;4.412;2022-12-07T17:35:56;4.90;;;3.53;;
5937;SDS011;2994;51.220;4.412;2022-12-07T17:38:22;4.60;;;3.70;;
5937;SDS011;2994;51.220;4.412;2022-12-07T17:40:47;4.67;;;3.27;;
5937;SDS011;2994;51.220;4.412;2022-12-07T17:43:13;6.13;;;4.23;;
5937;SDS011;2994;51.220;4.412;2022-12-07T17:45:38;5.20;;;4.40;;
5937;SDS011;2994;51.220;4.412;2022-12-07T17:48:04;7.70;;;5.30;;
5937;SDS011;2994;51.220;4.412;2022-12-07T17:50:29;6.33;;;4.50;;
5937;SDS011;2994;51.220;4.412;2022-12-07T17:53:13;6.73;;;5.37;;